sensor_id;sensor_type;location;lat;lon;timestamp;P1;durP1;ratioP1;P2;durP2;ratioP2
72649;SDS011;61467;50.674;4.618;2022-08-06T00:02:20;6.93;;;0.95;;
72649;SDS011;61467;50.674;4.618;2022-08-06T00:04:48;5.97;;;1.13;;
72649;SDS011;61467;50.674;4.618;2022-08-06T00:07:17;5.37;;;1.17;;
72649;SDS011;61467;50.674;4.618;2022-08-06T00:09:43;9.82;;;1.20;;
72649;SDS011;61467;50.674;4.618;2022-08-06T00:12:11;6.80;;;1.08;;
72649;SDS011;61467;50.674;4.618;2022-08-06T00:14:41;5.35;;;1.10;;
72649;SDS011;61467;50.674;4.618;2022-08-06T00:17:08;4.60;;;1.13;;
72649;SDS011;61467;50.674;4.618;2022-08-06T00:19:35;4.77;;;1.10;;
72649;SDS011;61467;50.674;4.618;2022-08-06T00:22:01;4.75;;;0.90;;
72649;SDS011;61467;50.674;4.618;2022-08-06T00:24:29;5.60;;;1.10;;
72649;SDS011;61467;50.674;4.618;2022-08-06T00:26:56;5.03;;;1.00;;
72649;SDS011;61467;50.674;4.618;2022-08-06T00:29:23;8.15;;;1.40;;
72649;SDS011;61467;50.674;4.618;2022-08-06T00:31:49;6.00;;;1.10;;
72649;SDS011;61467;50.674;4.618;2022-08-06T00:34:16;7.35;;;1.10;;
72649;SDS011;61467;50.674;4.618;2022-08-06T00:36:43;8.20;;;1.00;;
72649;SDS011;61467;50.674;4.618;2022-08-06T00:39:09;5.93;;;1.00;;
72649;SDS011;61467;50.674;4.618;2022-08-06T00:41:39;4.38;;;0.82;;
72649;SDS011;61467;50.674;4.618;2022-08-06T00:44:06;7.03;;;1.10;;
72649;SDS011;61467;50.674;4.618;2022-08-06T00:46:32;5.93;;;1.27;;
72649;SDS011;61467;50.674;4.618;2022-08-06T00:48:59;4.57;;;1.17;;
72649;SDS011;61467;50.674;4.618;2022-08-06T00:51:26;4.32;;;1.00;;
72649;SDS011;61467;50.674;4.618;2022-08-06T00:53:53;5.30;;;1.27;;
72649;SDS011;61467;50.674;4.618;2022-08-06T00:56:20;3.83;;;0.73;;
72649;SDS011;61467;50.674;4.618;2022-08-06T00:58:48;4.13;;;0.85;;
72649;SDS011;61467;50.674;4.618;2022-08-06T01:01:15;3.50;;;1.05;;
72649;SDS011;61467;50.674;4.618;2022-08-06T01:03:41;5.82;;;1.05;;
72649;SDS011;61467;50.674;4.618;2022-08-06T01:06:08;7.45;;;1.48;;
72649;SDS011;61467;50.674;4.618;2022-08-06T01:08:35;7.53;;;1.30;;
72649;SDS011;61467;50.674;4.618;2022-08-06T01:11:02;5.72;;;1.17;;
72649;SDS011;61467;50.674;4.618;2022-08-06T01:13:29;4.93;;;1.00;;
72649;SDS011;61467;50.674;4.618;2022-08-06T01:15:58;4.78;;;0.85;;
72649;SDS011;61467;50.674;4.618;2022-08-06T01:18:35;7.18;;;1.20;;
72649;SDS011;61467;50.674;4.618;2022-08-06T01:21:09;4.30;;;0.90;;
72649;SDS011;61467;50.674;4.618;2022-08-06T01:23:46;4.20;;;1.20;;
72649;SDS011;61467;50.674;4.618;2022-08-06T01:26:31;4.80;;;0.90;;
72649;SDS011;61467;50.674;4.618;2022-08-06T01:29:04;3.60;;;0.85;;
72649;SDS011;61467;50.674;4.618;2022-08-06T01:31:32;6.38;;;1.23;;
72649;SDS011;61467;50.674;4.618;2022-08-06T01:34:05;6.80;;;1.10;;
72649;SDS011;61467;50.674;4.618;2022-08-06T01:36:39;6.03;;;1.98;;
72649;SDS011;61467;50.674;4.618;2022-08-06T01:39:08;5.03;;;1.20;;
72649;SDS011;61467;50.674;4.618;2022-08-06T01:41:40;5.95;;;1.50;;
72649;SDS011;61467;50.674;4.618;2022-08-06T01:44:11;5.18;;;1.15;;
72649;SDS011;61467;50.674;4.618;2022-08-06T01:46:42;7.10;;;1.53;;
72649;SDS011;61467;50.674;4.618;2022-08-06T01:49:12;5.90;;;1.35;;
72649;SDS011;61467;50.674;4.618;2022-08-06T01:51:44;5.32;;;1.40;;
72649;SDS011;61467;50.674;4.618;2022-08-06T01:54:14;5.45;;;1.25;;
72649;SDS011;61467;50.674;4.618;2022-08-06T01:56:42;7.00;;;1.50;;
72649;SDS011;61467;50.674;4.618;2022-08-06T01:59:14;4.10;;;1.10;;
72649;SDS011;61467;50.674;4.618;2022-08-06T02:01:47;5.30;;;1.33;;
72649;SDS011;61467;50.674;4.618;2022-08-06T02:04:21;4.68;;;1.33;;
72649;SDS011;61467;50.674;4.618;2022-08-06T02:06:51;4.90;;;1.20;;
72649;SDS011;61467;50.674;4.618;2022-08-06T02:09:20;4.80;;;1.52;;
72649;SDS011;61467;50.674;4.618;2022-08-06T02:11:49;6.53;;;1.70;;
72649;SDS011;61467;50.674;4.618;2022-08-06T02:14:20;8.63;;;1.77;;
72649;SDS011;61467;50.674;4.618;2022-08-06T02:16:50;5.88;;;1.60;;
72649;SDS011;61467;50.674;4.618;2022-08-06T02:19:20;6.50;;;1.42;;
72649;SDS011;61467;50.674;4.618;2022-08-06T02:21:50;6.28;;;1.70;;
72649;SDS011;61467;50.674;4.618;2022-08-06T02:24:20;5.83;;;1.60;;
72649;SDS011;61467;50.674;4.618;2022-08-06T02:26:51;5.32;;;1.50;;
72649;SDS011;61467;50.674;4.618;2022-08-06T02:29:21;4.50;;;1.65;;
72649;SDS011;61467;50.674;4.618;2022-08-06T02:31:49;6.00;;;1.52;;
72649;SDS011;61467;50.674;4.618;2022-08-06T02:34:17;7.38;;;1.33;;
72649;SDS011;61467;50.674;4.618;2022-08-06T02:36:45;7.63;;;1.50;;
72649;SDS011;61467;50.674;4.618;2022-08-06T02:39:19;4.93;;;1.17;;
72649;SDS011;61467;50.674;4.618;2022-08-06T02:41:49;5.93;;;1.60;;
72649;SDS011;61467;50.674;4.618;2022-08-06T02:44:26;5.68;;;1.20;;
72649;SDS011;61467;50.674;4.618;2022-08-06T02:47:02;4.55;;;1.20;;
72649;SDS011;61467;50.674;4.618;2022-08-06T02:49:33;5.37;;;1.37;;
72649;SDS011;61467;50.674;4.618;2022-08-06T02:52:04;4.60;;;1.58;;
72649;SDS011;61467;50.674;4.618;2022-08-06T02:54:37;5.72;;;1.55;;
72649;SDS011;61467;50.674;4.618;2022-08-06T02:57:06;4.25;;;1.30;;
72649;SDS011;61467;50.674;4.618;2022-08-06T02:59:42;4.50;;;1.40;;
72649;SDS011;61467;50.674;4.618;2022-08-06T03:02:12;6.17;;;1.37;;
72649;SDS011;61467;50.674;4.618;2022-08-06T03:04:41;5.22;;;1.40;;
72649;SDS011;61467;50.674;4.618;2022-08-06T03:07:12;5.22;;;1.33;;
72649;SDS011;61467;50.674;4.618;2022-08-06T03:09:41;4.15;;;1.15;;
72649;SDS011;61467;50.674;4.618;2022-08-06T03:12:13;4.43;;;1.33;;
72649;SDS011;61467;50.674;4.618;2022-08-06T03:14:43;4.77;;;1.17;;
72649;SDS011;61467;50.674;4.618;2022-08-06T03:17:11;5.07;;;1.13;;
72649;SDS011;61467;50.674;4.618;2022-08-06T03:19:39;4.30;;;1.20;;
72649;SDS011;61467;50.674;4.618;2022-08-06T03:22:08;5.97;;;1.30;;
72649;SDS011;61467;50.674;4.618;2022-08-06T03:24:36;5.65;;;1.40;;
72649;SDS011;61467;50.674;4.618;2022-08-06T03:27:04;5.50;;;1.13;;
72649;SDS011;61467;50.674;4.618;2022-08-06T03:29:34;5.95;;;1.15;;
72649;SDS011;61467;50.674;4.618;2022-08-06T03:32:04;4.90;;;1.30;;
72649;SDS011;61467;50.674;4.618;2022-08-06T03:34:32;4.32;;;0.90;;
72649;SDS011;61467;50.674;4.618;2022-08-06T03:37:01;5.30;;;1.20;;
72649;SDS011;61467;50.674;4.618;2022-08-06T03:39:29;6.20;;;1.20;;
72649;SDS011;61467;50.674;4.618;2022-08-06T03:41:57;7.47;;;1.50;;
72649;SDS011;61467;50.674;4.618;2022-08-06T03:44:24;7.25;;;1.60;;
72649;SDS011;61467;50.674;4.618;2022-08-06T03:46:51;5.43;;;1.40;;
72649;SDS011;61467;50.674;4.618;2022-08-06T03:49:23;4.25;;;1.20;;
72649;SDS011;61467;50.674;4.618;2022-08-06T03:51:53;6.13;;;1.40;;
72649;SDS011;61467;50.674;4.618;2022-08-06T03:54:23;6.35;;;1.45;;
72649;SDS011;61467;50.674;4.618;2022-08-06T03:56:52;7.07;;;1.70;;
72649;SDS011;61467;50.674;4.618;2022-08-06T03:59:20;8.13;;;1.55;;
72649;SDS011;61467;50.674;4.618;2022-08-06T04:01:50;7.00;;;1.40;;
72649;SDS011;61467;50.674;4.618;2022-08-06T04:04:17;5.67;;;1.40;;
72649;SDS011;61467;50.674;4.618;2022-08-06T04:06:47;4.18;;;1.20;;
72649;SDS011;61467;50.674;4.618;2022-08-06T04:09:14;6.78;;;1.60;;
72649;SDS011;61467;50.674;4.618;2022-08-06T04:11:41;5.63;;;1.23;;
72649;SDS011;61467;50.674;4.618;2022-08-06T04:14:08;8.73;;;1.45;;
72649;SDS011;61467;50.674;4.618;2022-08-06T04:16:36;5.53;;;1.30;;
72649;SDS011;61467;50.674;4.618;2022-08-06T04:19:04;7.43;;;1.85;;
72649;SDS011;61467;50.674;4.618;2022-08-06T04:21:33;5.43;;;1.25;;
72649;SDS011;61467;50.674;4.618;2022-08-06T04:24:01;4.75;;;1.27;;
72649;SDS011;61467;50.674;4.618;2022-08-06T04:26:28;5.70;;;1.20;;
72649;SDS011;61467;50.674;4.618;2022-08-06T04:28:56;4.57;;;1.40;;
72649;SDS011;61467;50.674;4.618;2022-08-06T04:31:26;7.88;;;1.38;;
72649;SDS011;61467;50.674;4.618;2022-08-06T04:33:55;6.82;;;1.67;;
72649;SDS011;61467;50.674;4.618;2022-08-06T04:36:24;5.97;;;1.30;;
72649;SDS011;61467;50.674;4.618;2022-08-06T04:38:51;5.70;;;1.42;;
72649;SDS011;61467;50.674;4.618;2022-08-06T04:41:20;5.40;;;1.10;;
72649;SDS011;61467;50.674;4.618;2022-08-06T04:43:48;6.60;;;1.40;;
72649;SDS011;61467;50.674;4.618;2022-08-06T04:46:15;6.75;;;1.60;;
72649;SDS011;61467;50.674;4.618;2022-08-06T04:48:42;5.78;;;1.20;;
72649;SDS011;61467;50.674;4.618;2022-08-06T04:51:09;5.95;;;1.25;;
72649;SDS011;61467;50.674;4.618;2022-08-06T04:53:39;4.00;;;1.23;;
72649;SDS011;61467;50.674;4.618;2022-08-06T04:56:07;4.93;;;1.20;;
72649;SDS011;61467;50.674;4.618;2022-08-06T04:58:36;6.97;;;1.35;;
72649;SDS011;61467;50.674;4.618;2022-08-06T05:01:03;6.55;;;1.30;;
72649;SDS011;61467;50.674;4.618;2022-08-06T05:03:30;8.48;;;2.05;;
72649;SDS011;61467;50.674;4.618;2022-08-06T05:05:59;5.33;;;1.30;;
72649;SDS011;61467;50.674;4.618;2022-08-06T05:08:30;6.35;;;1.50;;
72649;SDS011;61467;50.674;4.618;2022-08-06T05:11:00;5.90;;;1.40;;
72649;SDS011;61467;50.674;4.618;2022-08-06T05:13:32;7.18;;;1.50;;
72649;SDS011;61467;50.674;4.618;2022-08-06T05:16:03;5.30;;;1.52;;
72649;SDS011;61467;50.674;4.618;2022-08-06T05:18:34;9.17;;;1.70;;
72649;SDS011;61467;50.674;4.618;2022-08-06T05:21:03;5.18;;;1.45;;
72649;SDS011;61467;50.674;4.618;2022-08-06T05:23:34;8.18;;;1.98;;
72649;SDS011;61467;50.674;4.618;2022-08-06T05:26:05;6.50;;;1.17;;
72649;SDS011;61467;50.674;4.618;2022-08-06T05:28:33;4.60;;;1.17;;
72649;SDS011;61467;50.674;4.618;2022-08-06T05:30:59;4.20;;;1.30;;
72649;SDS011;61467;50.674;4.618;2022-08-06T05:33:28;8.32;;;1.63;;
72649;SDS011;61467;50.674;4.618;2022-08-06T05:35:57;6.80;;;1.70;;
72649;SDS011;61467;50.674;4.618;2022-08-06T05:38:24;5.88;;;1.27;;
72649;SDS011;61467;50.674;4.618;2022-08-06T05:40:51;6.57;;;1.67;;
72649;SDS011;61467;50.674;4.618;2022-08-06T05:43:18;5.97;;;1.20;;
72649;SDS011;61467;50.674;4.618;2022-08-06T05:45:46;9.13;;;1.65;;
72649;SDS011;61467;50.674;4.618;2022-08-06T05:48:14;4.80;;;1.17;;
72649;SDS011;61467;50.674;4.618;2022-08-06T05:50:46;5.30;;;1.02;;
72649;SDS011;61467;50.674;4.618;2022-08-06T05:53:17;7.22;;;1.40;;
72649;SDS011;61467;50.674;4.618;2022-08-06T05:55:50;8.37;;;1.17;;
72649;SDS011;61467;50.674;4.618;2022-08-06T05:58:23;6.45;;;1.27;;
72649;SDS011;61467;50.674;4.618;2022-08-06T06:00:53;7.78;;;1.35;;
72649;SDS011;61467;50.674;4.618;2022-08-06T06:03:24;6.00;;;1.10;;
72649;SDS011;61467;50.674;4.618;2022-08-06T06:05:54;6.90;;;1.20;;
72649;SDS011;61467;50.674;4.618;2022-08-06T06:08:22;8.20;;;1.40;;
72649;SDS011;61467;50.674;4.618;2022-08-06T06:10:50;6.25;;;1.20;;
72649;SDS011;61467;50.674;4.618;2022-08-06T06:13:17;4.30;;;1.05;;
72649;SDS011;61467;50.674;4.618;2022-08-06T06:15:47;4.40;;;1.00;;
72649;SDS011;61467;50.674;4.618;2022-08-06T06:18:20;7.50;;;1.30;;
72649;SDS011;61467;50.674;4.618;2022-08-06T06:20:58;8.57;;;1.37;;
72649;SDS011;61467;50.674;4.618;2022-08-06T06:23:33;5.90;;;1.20;;
72649;SDS011;61467;50.674;4.618;2022-08-06T06:26:07;7.20;;;1.27;;
72649;SDS011;61467;50.674;4.618;2022-08-06T06:28:43;6.65;;;1.00;;
72649;SDS011;61467;50.674;4.618;2022-08-06T06:31:23;11.80;;;2.45;;
72649;SDS011;61467;50.674;4.618;2022-08-06T06:34:00;4.60;;;1.00;;
72649;SDS011;61467;50.674;4.618;2022-08-06T06:36:34;6.00;;;1.02;;
72649;SDS011;61467;50.674;4.618;2022-08-06T06:39:06;6.47;;;1.30;;
72649;SDS011;61467;50.674;4.618;2022-08-06T06:41:35;8.50;;;0.95;;
72649;SDS011;61467;50.674;4.618;2022-08-06T06:44:08;5.80;;;1.13;;
72649;SDS011;61467;50.674;4.618;2022-08-06T06:46:39;8.10;;;1.10;;
72649;SDS011;61467;50.674;4.618;2022-08-06T06:49:16;6.75;;;1.05;;
72649;SDS011;61467;50.674;4.618;2022-08-06T06:51:49;5.90;;;1.30;;
72649;SDS011;61467;50.674;4.618;2022-08-06T06:54:20;4.75;;;0.95;;
72649;SDS011;61467;50.674;4.618;2022-08-06T06:56:50;6.70;;;1.20;;
72649;SDS011;61467;50.674;4.618;2022-08-06T06:59:21;6.73;;;1.07;;
72649;SDS011;61467;50.674;4.618;2022-08-06T07:01:51;7.45;;;1.15;;
72649;SDS011;61467;50.674;4.618;2022-08-06T07:04:19;5.80;;;1.05;;
72649;SDS011;61467;50.674;4.618;2022-08-06T07:06:50;6.35;;;1.00;;
72649;SDS011;61467;50.674;4.618;2022-08-06T07:09:20;4.78;;;1.27;;
72649;SDS011;61467;50.674;4.618;2022-08-06T07:11:49;6.23;;;1.00;;
72649;SDS011;61467;50.674;4.618;2022-08-06T07:14:20;8.65;;;1.60;;
72649;SDS011;61467;50.674;4.618;2022-08-06T07:16:49;7.53;;;1.08;;
72649;SDS011;61467;50.674;4.618;2022-08-06T07:19:20;8.20;;;1.10;;
72649;SDS011;61467;50.674;4.618;2022-08-06T07:21:51;7.35;;;0.93;;
72649;SDS011;61467;50.674;4.618;2022-08-06T07:24:18;7.47;;;0.90;;
72649;SDS011;61467;50.674;4.618;2022-08-06T07:26:46;5.43;;;0.93;;
72649;SDS011;61467;50.674;4.618;2022-08-06T07:29:15;5.97;;;0.90;;
72649;SDS011;61467;50.674;4.618;2022-08-06T07:31:42;4.68;;;0.90;;
72649;SDS011;61467;50.674;4.618;2022-08-06T07:34:12;6.40;;;0.88;;
72649;SDS011;61467;50.674;4.618;2022-08-06T07:36:41;5.00;;;0.90;;
72649;SDS011;61467;50.674;4.618;2022-08-06T07:39:15;4.63;;;0.80;;
72649;SDS011;61467;50.674;4.618;2022-08-06T07:41:45;4.53;;;0.77;;
72649;SDS011;61467;50.674;4.618;2022-08-06T07:44:13;5.82;;;0.90;;
72649;SDS011;61467;50.674;4.618;2022-08-06T07:46:41;7.45;;;0.88;;
72649;SDS011;61467;50.674;4.618;2022-08-06T07:49:13;6.63;;;0.90;;
72649;SDS011;61467;50.674;4.618;2022-08-06T07:51:42;3.97;;;0.70;;
72649;SDS011;61467;50.674;4.618;2022-08-06T07:54:10;4.00;;;0.73;;
72649;SDS011;61467;50.674;4.618;2022-08-06T07:56:41;5.90;;;1.00;;
72649;SDS011;61467;50.674;4.618;2022-08-06T07:59:09;6.40;;;0.88;;
72649;SDS011;61467;50.674;4.618;2022-08-06T08:01:36;4.67;;;1.20;;
72649;SDS011;61467;50.674;4.618;2022-08-06T08:04:04;5.80;;;0.70;;
72649;SDS011;61467;50.674;4.618;2022-08-06T08:06:50;7.35;;;0.90;;
72649;SDS011;61467;50.674;4.618;2022-08-06T08:09:18;5.82;;;0.93;;
72649;SDS011;61467;50.674;4.618;2022-08-06T08:11:48;5.90;;;0.85;;
72649;SDS011;61467;50.674;4.618;2022-08-06T08:14:18;5.83;;;0.70;;
72649;SDS011;61467;50.674;4.618;2022-08-06T08:16:47;6.28;;;0.90;;
72649;SDS011;61467;50.674;4.618;2022-08-06T08:19:20;8.00;;;1.00;;
72649;SDS011;61467;50.674;4.618;2022-08-06T08:21:53;6.57;;;1.10;;
72649;SDS011;61467;50.674;4.618;2022-08-06T08:24:21;7.13;;;1.08;;
72649;SDS011;61467;50.674;4.618;2022-08-06T08:26:53;5.53;;;0.70;;
72649;SDS011;61467;50.674;4.618;2022-08-06T08:29:20;6.55;;;0.80;;
72649;SDS011;61467;50.674;4.618;2022-08-06T08:31:47;6.18;;;0.95;;
72649;SDS011;61467;50.674;4.618;2022-08-06T08:34:13;4.93;;;0.88;;
72649;SDS011;61467;50.674;4.618;2022-08-06T08:36:40;5.90;;;0.88;;
72649;SDS011;61467;50.674;4.618;2022-08-06T08:39:07;6.87;;;0.80;;
72649;SDS011;61467;50.674;4.618;2022-08-06T08:41:35;7.00;;;1.00;;
72649;SDS011;61467;50.674;4.618;2022-08-06T08:44:06;5.90;;;0.80;;
72649;SDS011;61467;50.674;4.618;2022-08-06T08:46:35;4.53;;;0.65;;
72649;SDS011;61467;50.674;4.618;2022-08-06T08:49:04;4.05;;;1.00;;
72649;SDS011;61467;50.674;4.618;2022-08-06T08:51:35;7.57;;;0.90;;
72649;SDS011;61467;50.674;4.618;2022-08-06T08:54:06;5.43;;;0.85;;
72649;SDS011;61467;50.674;4.618;2022-08-06T08:56:35;3.50;;;0.80;;
72649;SDS011;61467;50.674;4.618;2022-08-06T08:59:03;3.53;;;0.70;;
72649;SDS011;61467;50.674;4.618;2022-08-06T09:01:32;3.05;;;0.65;;
72649;SDS011;61467;50.674;4.618;2022-08-06T09:04:01;5.10;;;0.70;;
72649;SDS011;61467;50.674;4.618;2022-08-06T09:06:29;3.47;;;0.50;;
72649;SDS011;61467;50.674;4.618;2022-08-06T09:08:58;5.35;;;0.68;;
72649;SDS011;61467;50.674;4.618;2022-08-06T09:11:28;4.72;;;0.82;;
72649;SDS011;61467;50.674;4.618;2022-08-06T09:13:55;4.18;;;0.50;;
72649;SDS011;61467;50.674;4.618;2022-08-06T09:16:22;7.73;;;1.43;;
72649;SDS011;61467;50.674;4.618;2022-08-06T09:18:51;5.97;;;0.93;;
72649;SDS011;61467;50.674;4.618;2022-08-06T09:21:20;3.47;;;0.88;;
72649;SDS011;61467;50.674;4.618;2022-08-06T09:23:46;5.38;;;1.00;;
72649;SDS011;61467;50.674;4.618;2022-08-06T09:26:13;4.03;;;0.68;;
72649;SDS011;61467;50.674;4.618;2022-08-06T09:28:41;7.30;;;0.80;;
72649;SDS011;61467;50.674;4.618;2022-08-06T09:31:09;7.05;;;0.90;;
72649;SDS011;61467;50.674;4.618;2022-08-06T09:33:37;6.15;;;0.93;;
72649;SDS011;61467;50.674;4.618;2022-08-06T09:36:08;4.20;;;0.70;;
72649;SDS011;61467;50.674;4.618;2022-08-06T09:38:44;2.70;;;0.60;;
72649;SDS011;61467;50.674;4.618;2022-08-06T09:41:14;5.53;;;0.73;;
72649;SDS011;61467;50.674;4.618;2022-08-06T09:43:42;3.22;;;0.85;;
72649;SDS011;61467;50.674;4.618;2022-08-06T09:46:10;4.90;;;0.75;;
72649;SDS011;61467;50.674;4.618;2022-08-06T09:48:38;6.15;;;0.95;;
72649;SDS011;61467;50.674;4.618;2022-08-06T09:51:23;3.38;;;0.80;;
72649;SDS011;61467;50.674;4.618;2022-08-06T09:53:51;2.77;;;0.40;;
72649;SDS011;61467;50.674;4.618;2022-08-06T09:56:19;4.47;;;0.80;;
72649;SDS011;61467;50.674;4.618;2022-08-06T09:58:46;4.00;;;0.82;;
72649;SDS011;61467;50.674;4.618;2022-08-06T10:01:14;3.10;;;0.65;;
72649;SDS011;61467;50.674;4.618;2022-08-06T10:03:41;3.75;;;1.02;;
72649;SDS011;61467;50.674;4.618;2022-08-06T10:06:09;3.43;;;0.50;;
72649;SDS011;61467;50.674;4.618;2022-08-06T10:08:39;5.13;;;0.50;;
72649;SDS011;61467;50.674;4.618;2022-08-06T10:11:06;4.75;;;0.50;;
72649;SDS011;61467;50.674;4.618;2022-08-06T10:13:33;3.17;;;0.60;;
72649;SDS011;61467;50.674;4.618;2022-08-06T10:16:01;3.63;;;0.50;;
72649;SDS011;61467;50.674;4.618;2022-08-06T10:18:42;3.83;;;0.70;;
72649;SDS011;61467;50.674;4.618;2022-08-06T10:21:11;4.13;;;0.57;;
72649;SDS011;61467;50.674;4.618;2022-08-06T10:23:42;2.35;;;0.65;;
72649;SDS011;61467;50.674;4.618;2022-08-06T10:26:11;5.45;;;0.50;;
72649;SDS011;61467;50.674;4.618;2022-08-06T10:28:39;2.85;;;0.77;;
72649;SDS011;61467;50.674;4.618;2022-08-06T10:31:07;4.20;;;0.50;;
72649;SDS011;61467;50.674;4.618;2022-08-06T10:33:39;3.95;;;0.60;;
72649;SDS011;61467;50.674;4.618;2022-08-06T10:36:08;2.90;;;0.75;;
72649;SDS011;61467;50.674;4.618;2022-08-06T10:38:38;3.75;;;0.50;;
72649;SDS011;61467;50.674;4.618;2022-08-06T10:41:10;3.00;;;0.80;;
72649;SDS011;61467;50.674;4.618;2022-08-06T10:43:38;5.23;;;0.93;;
72649;SDS011;61467;50.674;4.618;2022-08-06T10:46:06;4.68;;;0.73;;
72649;SDS011;61467;50.674;4.618;2022-08-06T10:48:34;3.67;;;0.80;;
72649;SDS011;61467;50.674;4.618;2022-08-06T10:51:01;2.75;;;0.57;;
72649;SDS011;61467;50.674;4.618;2022-08-06T10:53:30;4.65;;;0.63;;
72649;SDS011;61467;50.674;4.618;2022-08-06T10:56:00;2.80;;;0.60;;
72649;SDS011;61467;50.674;4.618;2022-08-06T10:58:29;3.45;;;0.60;;
72649;SDS011;61467;50.674;4.618;2022-08-06T11:00:57;2.38;;;0.60;;
72649;SDS011;61467;50.674;4.618;2022-08-06T11:03:27;4.05;;;0.88;;
72649;SDS011;61467;50.674;4.618;2022-08-06T11:06:08;4.35;;;0.75;;
72649;SDS011;61467;50.674;4.618;2022-08-06T11:08:58;4.20;;;0.80;;
72649;SDS011;61467;50.674;4.618;2022-08-06T11:11:46;5.57;;;1.00;;
72649;SDS011;61467;50.674;4.618;2022-08-06T11:14:23;5.70;;;1.10;;
72649;SDS011;61467;50.674;4.618;2022-08-06T11:16:54;3.38;;;0.88;;
72649;SDS011;61467;50.674;4.618;2022-08-06T11:19:36;4.18;;;0.90;;
72649;SDS011;61467;50.674;4.618;2022-08-06T11:22:05;3.07;;;0.80;;
72649;SDS011;61467;50.674;4.618;2022-08-06T11:24:32;4.15;;;0.70;;
72649;SDS011;61467;50.674;4.618;2022-08-06T11:27:00;4.00;;;1.00;;
72649;SDS011;61467;50.674;4.618;2022-08-06T11:29:27;3.83;;;0.85;;
72649;SDS011;61467;50.674;4.618;2022-08-06T11:31:53;3.28;;;0.88;;
72649;SDS011;61467;50.674;4.618;2022-08-06T11:34:40;5.23;;;0.83;;
72649;SDS011;61467;50.674;4.618;2022-08-06T11:37:09;2.97;;;0.73;;
72649;SDS011;61467;50.674;4.618;2022-08-06T11:40:03;4.55;;;1.10;;
72649;SDS011;61467;50.674;4.618;2022-08-06T11:42:42;4.15;;;0.70;;
72649;SDS011;61467;50.674;4.618;2022-08-06T11:45:10;5.18;;;0.95;;
72649;SDS011;61467;50.674;4.618;2022-08-06T11:47:43;5.87;;;0.93;;
72649;SDS011;61467;50.674;4.618;2022-08-06T11:50:29;4.50;;;0.90;;
72649;SDS011;61467;50.674;4.618;2022-08-06T11:52:56;4.57;;;0.95;;
72649;SDS011;61467;50.674;4.618;2022-08-06T11:55:23;5.40;;;0.80;;
72649;SDS011;61467;50.674;4.618;2022-08-06T11:57:51;3.78;;;0.90;;
72649;SDS011;61467;50.674;4.618;2022-08-06T12:00:54;3.83;;;0.90;;
72649;SDS011;61467;50.674;4.618;2022-08-06T12:03:35;4.05;;;0.80;;
72649;SDS011;61467;50.674;4.618;2022-08-06T12:06:05;5.03;;;1.17;;
72649;SDS011;61467;50.674;4.618;2022-08-06T12:11:33;2.60;;;0.70;;
72649;SDS011;61467;50.674;4.618;2022-08-06T12:14:02;4.33;;;0.70;;
72649;SDS011;61467;50.674;4.618;2022-08-06T12:16:31;4.03;;;0.57;;
72649;SDS011;61467;50.674;4.618;2022-08-06T12:19:06;3.45;;;0.60;;
72649;SDS011;61467;50.674;4.618;2022-08-06T12:21:38;5.20;;;0.85;;
72649;SDS011;61467;50.674;4.618;2022-08-06T12:24:07;3.97;;;0.70;;
72649;SDS011;61467;50.674;4.618;2022-08-06T12:26:34;3.93;;;0.90;;
72649;SDS011;61467;50.674;4.618;2022-08-06T12:29:06;4.72;;;0.70;;
72649;SDS011;61467;50.674;4.618;2022-08-06T12:31:35;5.75;;;0.77;;
72649;SDS011;61467;50.674;4.618;2022-08-06T12:34:06;4.10;;;0.60;;
72649;SDS011;61467;50.674;4.618;2022-08-06T12:36:33;3.78;;;0.82;;
72649;SDS011;61467;50.674;4.618;2022-08-06T12:39:03;3.37;;;0.77;;
72649;SDS011;61467;50.674;4.618;2022-08-06T12:41:32;2.85;;;0.60;;
72649;SDS011;61467;50.674;4.618;2022-08-06T12:44:00;3.30;;;0.50;;
72649;SDS011;61467;50.674;4.618;2022-08-06T12:46:28;4.45;;;0.80;;
72649;SDS011;61467;50.674;4.618;2022-08-06T12:48:55;4.03;;;0.60;;
72649;SDS011;61467;50.674;4.618;2022-08-06T12:51:22;2.80;;;0.47;;
72649;SDS011;61467;50.674;4.618;2022-08-06T12:53:49;4.43;;;0.57;;
72649;SDS011;61467;50.674;4.618;2022-08-06T12:56:18;3.90;;;0.65;;
72649;SDS011;61467;50.674;4.618;2022-08-06T12:58:46;4.00;;;0.70;;
72649;SDS011;61467;50.674;4.618;2022-08-06T13:01:15;4.18;;;0.60;;
72649;SDS011;61467;50.674;4.618;2022-08-06T13:03:46;5.23;;;1.23;;
72649;SDS011;61467;50.674;4.618;2022-08-06T13:06:15;4.82;;;0.68;;
72649;SDS011;61467;50.674;4.618;2022-08-06T13:08:44;4.45;;;0.70;;
72649;SDS011;61467;50.674;4.618;2022-08-06T13:11:13;3.50;;;0.50;;
72649;SDS011;61467;50.674;4.618;2022-08-06T13:13:40;3.15;;;0.70;;
72649;SDS011;61467;50.674;4.618;2022-08-06T13:16:09;2.53;;;0.50;;
72649;SDS011;61467;50.674;4.618;2022-08-06T13:18:37;5.03;;;0.50;;
72649;SDS011;61467;50.674;4.618;2022-08-06T13:21:15;3.90;;;0.70;;
72649;SDS011;61467;50.674;4.618;2022-08-06T13:23:45;2.70;;;0.50;;
72649;SDS011;61467;50.674;4.618;2022-08-06T13:26:13;4.10;;;0.70;;
72649;SDS011;61467;50.674;4.618;2022-08-06T13:29:06;3.73;;;0.60;;
72649;SDS011;61467;50.674;4.618;2022-08-06T13:31:34;4.05;;;0.60;;
72649;SDS011;61467;50.674;4.618;2022-08-06T13:34:03;3.08;;;0.60;;
72649;SDS011;61467;50.674;4.618;2022-08-06T13:36:32;3.90;;;0.60;;
72649;SDS011;61467;50.674;4.618;2022-08-06T13:39:16;3.47;;;0.70;;
72649;SDS011;61467;50.674;4.618;2022-08-06T13:41:44;4.80;;;0.87;;
72649;SDS011;61467;50.674;4.618;2022-08-06T13:44:25;3.63;;;0.85;;
72649;SDS011;61467;50.674;4.618;2022-08-06T13:46:52;5.78;;;1.13;;
72649;SDS011;61467;50.674;4.618;2022-08-06T13:49:19;4.15;;;0.60;;
72649;SDS011;61467;50.674;4.618;2022-08-06T13:51:47;3.15;;;0.60;;
72649;SDS011;61467;50.674;4.618;2022-08-06T13:54:14;3.37;;;0.70;;
72649;SDS011;61467;50.674;4.618;2022-08-06T13:56:41;4.25;;;0.80;;
72649;SDS011;61467;50.674;4.618;2022-08-06T13:59:08;3.08;;;0.73;;
72649;SDS011;61467;50.674;4.618;2022-08-06T14:01:34;2.78;;;0.60;;
72649;SDS011;61467;50.674;4.618;2022-08-06T14:04:01;3.75;;;0.82;;
72649;SDS011;61467;50.674;4.618;2022-08-06T14:06:28;3.53;;;0.73;;
72649;SDS011;61467;50.674;4.618;2022-08-06T14:08:56;3.10;;;0.70;;
72649;SDS011;61467;50.674;4.618;2022-08-06T14:11:24;4.60;;;0.80;;
72649;SDS011;61467;50.674;4.618;2022-08-06T14:13:50;2.88;;;0.80;;
72649;SDS011;61467;50.674;4.618;2022-08-06T14:16:17;3.30;;;0.80;;
72649;SDS011;61467;50.674;4.618;2022-08-06T14:18:44;4.67;;;0.90;;
72649;SDS011;61467;50.674;4.618;2022-08-06T14:21:10;2.58;;;0.60;;
72649;SDS011;61467;50.674;4.618;2022-08-06T14:23:37;3.95;;;0.80;;
72649;SDS011;61467;50.674;4.618;2022-08-06T14:26:05;5.15;;;0.75;;
72649;SDS011;61467;50.674;4.618;2022-08-06T14:28:32;3.63;;;0.73;;
72649;SDS011;61467;50.674;4.618;2022-08-06T14:30:59;5.07;;;0.43;;
72649;SDS011;61467;50.674;4.618;2022-08-06T14:33:26;2.38;;;0.50;;
72649;SDS011;61467;50.674;4.618;2022-08-06T14:35:53;2.78;;;0.70;;
72649;SDS011;61467;50.674;4.618;2022-08-06T14:38:20;3.65;;;0.68;;
72649;SDS011;61467;50.674;4.618;2022-08-06T14:40:47;3.80;;;0.70;;
72649;SDS011;61467;50.674;4.618;2022-08-06T14:43:33;3.83;;;0.50;;
72649;SDS011;61467;50.674;4.618;2022-08-06T14:46:17;2.45;;;0.75;;
72649;SDS011;61467;50.674;4.618;2022-08-06T14:48:44;3.58;;;0.80;;
72649;SDS011;61467;50.674;4.618;2022-08-06T14:51:10;4.43;;;0.80;;
72649;SDS011;61467;50.674;4.618;2022-08-06T14:53:37;3.63;;;0.60;;
72649;SDS011;61467;50.674;4.618;2022-08-06T14:56:04;2.97;;;0.50;;
72649;SDS011;61467;50.674;4.618;2022-08-06T14:58:32;3.08;;;0.63;;
72649;SDS011;61467;50.674;4.618;2022-08-06T15:00:59;3.72;;;1.10;;
72649;SDS011;61467;50.674;4.618;2022-08-06T15:03:26;4.85;;;0.60;;
72649;SDS011;61467;50.674;4.618;2022-08-06T15:05:53;5.55;;;0.50;;
72649;SDS011;61467;50.674;4.618;2022-08-06T15:08:20;3.23;;;0.80;;